Time;durP1;ratioP1;P1;durP2;ratioP2;P2;SDS_P1;SDS_P2;PMS_P1;PMS_P2;Temp;Humidity;BMP_temperature;BMP_pressure;BME280_temperature;BME280_humidity;BME280_pressure;Samples;Min_cycle;Max_cycle;Signal;HPM_P1;HPM_P2
2022/06/02 00:03:17;;;;;;;3.97;2.00;;;;;;;11.56;70.88;99978.84;12210474;19;20612;-82
2022/06/02 00:07:52;;;;;;;4.22;2.38;;;;;;;11.52;71.20;99983.19;12183174;19;20013;-82
2022/06/02 00:12:28;;;;;;;3.83;2.00;;;;;;;11.47;70.80;99983.09;12204525;19;20019;-80
2022/06/02 00:16:39;;;;;;;3.92;2.50;;;;;;;11.40;70.51;99986.03;12193802;19;20007;-81
2022/06/02 00:21:01;;;;;;;3.88;2.50;;;;;;;11.35;71.18;99985.94;12202138;19;20014;-81
2022/06/02 00:25:16;;;;;;;2.65;1.92;;;;;;;11.31;71.36;99998.59;12188134;19;20081;-81
2022/06/02 00:29:24;;;;;;;4.38;2.20;;;;;;;11.29;71.13;99992.47;12210104;19;20033;-78
2022/06/02 00:33:49;;;;;;;5.10;2.72;;;;;;;11.26;71.78;100002.09;12207921;19;20015;-82
2022/06/02 00:37:54;;;;;;;2.97;1.95;;;;;;;11.25;71.47;100000.41;12181508;19;21354;-80
2022/06/02 00:42:24;;;;;;;2.90;2.00;;;;;;;11.22;72.14;100003.69;12207934;19;20066;-79
2022/06/02 00:46:34;;;;;;;2.63;1.92;;;;;;;11.17;72.11;100000.81;12179850;19;20062;-80
2022/06/02 00:50:51;;;;;;;2.45;2.00;;;;;;;11.14;72.05;100007.66;12212418;19;20018;-80
2022/06/02 01:00:11;;;;;;;6.85;2.13;;;;;;;11.11;72.17;100004.56;12214488;19;20019;-81
2022/06/02 01:04:16;;;;;;;3.67;2.00;;;;;;;11.06;72.30;100010.81;12184948;19;20058;-79
2022/06/02 01:08:54;;;;;;;6.03;1.90;;;;;;;11.06;72.39;100018.25;12199957;19;20024;-81
2022/06/02 01:13:24;;;;;;;3.00;2.20;;;;;;;11.02;72.27;100011.59;12174797;19;20003;-79
2022/06/02 01:18:03;;;;;;;4.43;1.85;;;;;;;10.94;72.84;100005.38;12186319;19;20062;-80
2022/06/02 01:22:42;;;;;;;4.57;1.92;;;;;;;10.90;73.35;100008.88;12166739;19;20480;-78
2022/06/02 01:27:22;;;;;;;2.70;1.98;;;;;;;10.86;73.89;100016.00;12208639;19;20554;-80
2022/06/02 01:31:57;;;;;;;3.40;2.25;;;;;;;10.82;74.07;100018.38;12181944;19;20017;-81
2022/06/02 01:36:06;;;;;;;3.72;2.05;;;;;;;10.75;74.61;100023.22;12205299;19;20038;-80
2022/06/02 01:40:17;;;;;;;3.38;2.38;;;;;;;10.70;74.65;100023.94;12177941;19;20046;-80
2022/06/02 01:44:31;;;;;;;7.30;2.35;;;;;;;10.68;75.19;100028.06;12206346;19;20014;-83
2022/06/02 01:48:44;;;;;;;3.42;2.13;;;;;;;10.66;75.00;100027.44;12196796;19;20010;-82
2022/06/02 01:52:52;;;;;;;;;;;;;;;10.62;75.40;100029.00;12174026;19;20014;-81
2022/06/02 01:57:21;;;;;;;4.20;1.90;;;;;;;10.60;74.97;100034.78;12201733;19;19946;-81
2022/06/02 02:01:34;;;;;;;2.97;2.15;;;;;;;10.60;75.13;100036.69;12177321;19;20471;-81
2022/06/02 02:05:47;;;;;;;2.85;2.10;;;;;;;10.57;75.06;100037.19;12195330;19;20570;-81
2022/06/02 02:10:07;;;;;;;4.57;2.30;;;;;;;10.55;75.27;100040.16;12171601;19;20407;-80
2022/06/02 02:14:30;;;;;;;4.43;2.10;;;;;;;10.52;75.57;100039.81;12200348;19;20038;-80
2022/06/02 02:18:45;;;;;;;3.20;1.58;;;;;;;10.46;75.60;100047.97;12190711;19;20078;-81
2022/06/02 02:23:18;;;;;;;2.78;1.88;;;;;;;10.42;76.21;100043.22;12196814;19;20774;-81
2022/06/02 02:27:32;;;;;;;3.08;2.22;;;;;;;10.37;76.18;100054.94;12197334;19;20025;-79
2022/06/02 02:31:58;;;;;;;5.82;2.35;;;;;;;10.32;76.49;100060.38;12182409;19;20094;-80
2022/06/02 02:36:27;;;;;;;3.58;2.25;;;;;;;10.26;76.88;100053.91;12200641;19;20007;-80
2022/06/02 02:40:38;;;;;;;3.20;2.22;;;;;;;10.22;76.92;100057.34;12174607;19;20453;-79
2022/06/02 02:45:20;;;;;;;5.10;2.17;;;;;;;10.16;77.35;100059.13;12199578;19;20003;-79
2022/06/02 02:49:28;;;;;;;4.97;2.30;;;;;;;10.12;77.28;100051.63;12178953;19;20082;-77
2022/06/02 02:53:34;;;;;;;3.33;2.30;;;;;;;10.09;77.66;100057.59;12195744;19;20002;-80
2022/06/02 02:57:51;;;;;;;3.53;2.17;;;;;;;10.06;78.04;100058.09;12198599;19;20074;-80
2022/06/02 03:02:15;;;;;;;4.38;2.20;;;;;;;10.02;78.96;100064.09;12193202;19;20361;-81
2022/06/02 03:06:30;;;;;;;2.60;2.10;;;;;;;10.00;78.74;100066.22;12197344;19;20018;-80
2022/06/02 03:10:36;;;;;;;3.10;2.10;;;;;;;9.99;79.24;100081.06;12173103;19;20042;-80
2022/06/02 03:15:02;;;;;;;3.58;2.10;;;;;;;9.98;79.02;100068.38;12210993;19;20016;-80
2022/06/02 03:19:15;;;;;;;7.65;2.50;;;;;;;9.95;78.89;100074.34;12197459;19;20081;-79
2022/06/02 03:23:38;;;;;;;4.47;2.20;;;;;;;9.96;79.05;100081.53;12225792;19;20022;-80
2022/06/02 03:27:49;;;;;;;4.13;2.88;;;;;;;9.97;78.92;100076.88;12194074;19;20010;-78
2022/06/02 03:32:07;;;;;;;4.10;2.22;;;;;;;10.01;78.67;100078.06;12228173;19;20015;-80
2022/06/02 03:36:09;;;;;;;4.18;2.70;;;;;;;10.03;78.21;100082.25;12221163;19;20463;-80
2022/06/02 03:40:29;;;;;;;3.42;2.40;;;;;;;10.04;79.05;100081.19;12204429;19;20010;-80
2022/06/02 03:44:49;;;;;;;5.82;2.60;;;;;;;10.06;78.71;100094.72;12209524;19;20017;-80
2022/06/02 03:49:07;;;;;;;3.10;2.08;;;;;;;10.03;78.68;100100.69;12195576;19;20097;-80
2022/06/02 03:53:37;;;;;;;5.95;2.72;;;;;;;9.97;79.15;100093.41;12207282;19;20003;-80
2022/06/02 03:57:46;;;;;;;4.38;2.42;;;;;;;9.90;79.31;100101.75;12200792;19;20023;-79
2022/06/02 04:02:08;;;;;;;3.22;2.38;;;;;;;9.82;80.05;100102.13;12218219;19;20011;-78
2022/06/02 04:06:37;;;;;;;4.30;2.50;;;;;;;9.74;80.45;100108.81;12218217;19;20030;-79
2022/06/02 04:11:10;;;;;;;3.35;2.30;;;;;;;9.61;80.90;100105.41;12198536;19;20349;-80
2022/06/02 04:15:24;;;;;;;6.72;2.80;;;;;;;9.50;81.90;100118.94;12216539;19;20006;-81
2022/06/02 04:24:49;;;;;;;7.45;2.90;;;;;;;9.44;82.98;100110.78;12218876;19;20003;-80
2022/06/02 04:33:08;;;;;;;4.97;2.47;;;;;;;9.38;83.37;100128.22;12208841;19;20011;-81
2022/06/02 04:37:21;;;;;;;5.53;3.58;;;;;;;9.39;83.38;100124.41;12186009;19;20002;-80
2022/06/02 04:41:36;;;;;;;5.25;2.92;;;;;;;9.35;84.44;100130.38;12203770;19;20070;-79
2022/06/02 04:45:53;;;;;;;3.63;2.92;;;;;;;9.38;83.90;100140.06;12184077;19;20114;-79
2022/06/02 04:50:07;;;;;;;4.20;3.20;;;;;;;9.44;84.58;100133.63;12201333;19;20010;-78
2022/06/02 04:54:31;;;;;;;7.05;3.25;;;;;;;9.51;84.79;100131.59;12196388;19;20816;-79
2022/06/02 04:58:48;;;;;;;4.97;3.25;;;;;;;9.58;85.30;100129.59;12180193;19;20010;-79
2022/06/02 05:03:19;;;;;;;3.60;2.58;;;;;;;9.70;85.83;100128.78;12204694;19;20092;-79
2022/06/02 05:07:26;;;;;;;8.48;2.78;;;;;;;9.76;85.77;100130.59;12179601;19;20488;-77
2022/06/02 05:11:40;;;;;;;4.75;2.75;;;;;;;9.84;86.23;100132.97;12195326;19;20011;-78
2022/06/02 05:16:20;;;;;;;4.40;2.30;;;;;;;9.91;87.53;100133.72;12187674;19;20019;-80
2022/06/02 05:20:50;;;;;;;5.47;2.50;;;;;;;10.05;88.32;100131.56;12194509;19;20010;-80
2022/06/02 05:25:13;;;;;;;10.18;2.90;;;;;;;10.23;87.36;100147.13;12179788;19;20062;-80
2022/06/02 05:29:31;;;;;;;5.53;2.95;;;;;;;10.40;86.42;100148.13;12204326;19;20018;-82
2022/06/02 05:33:38;;;;;;;5.20;3.58;;;;;;;10.60;85.52;100146.91;12210270;19;20026;-80
2022/06/02 05:38:02;;;;;;;5.40;3.88;;;;;;;10.84;84.95;100151.31;12175393;19;20086;-80
2022/06/02 05:42:22;;;;;;;;;;;;;;;11.01;84.32;100165.19;12197742;19;20026;-81
2022/06/02 05:46:34;;;;;;;5.05;3.10;;;;;;;11.24;82.78;100171.69;12178469;19;19914;-79
2022/06/02 05:50:47;;;;;;;6.85;3.97;;;;;;;11.48;82.42;100166.91;12204503;19;20014;-81
2022/06/02 05:55:13;;;;;;;7.18;3.53;;;;;;;11.66;81.91;100166.72;12185909;19;20050;-79
2022/06/02 05:59:49;;;;;;;5.60;3.03;;;;;;;11.85;80.97;100159.91;12208428;19;20413;-80
2022/06/02 06:04:18;;;;;;;7.00;3.70;;;;;;;12.07;79.80;100172.94;12186794;19;20034;-78
2022/06/02 06:08:49;;;;;;;5.28;3.38;;;;;;;12.29;79.45;100182.16;12193237;19;20010;-81
2022/06/02 06:13:20;;;;;;;6.90;3.92;;;;;;;12.52;77.86;100188.56;12188691;19;20010;-81
2022/06/02 06:17:47;;;;;;;7.47;4.03;;;;;;;12.72;76.99;100202.72;12204436;19;20081;-79
2022/06/02 06:22:35;;;;;;;7.68;5.65;;;;;;;12.93;75.50;100198.28;12180643;19;20027;-79
2022/06/02 06:26:50;;;;;;;11.63;5.38;;;;;;;13.11;73.57;100215.69;12205550;19;20015;-79
2022/06/02 06:31:31;;;;;;;9.57;5.90;;;;;;;13.20;71.33;100220.50;12185207;19;20010;-79
2022/06/02 06:36:25;;;;;;;10.60;5.60;;;;;;;13.43;70.93;100211.13;12199133;19;20007;-79
2022/06/02 06:40:51;;;;;;;9.23;5.77;;;;;;;13.73;70.37;100212.56;12172069;19;20014;-78
2022/06/02 06:45:03;;;;;;;10.27;5.68;;;;;;;13.96;69.39;100208.66;12200487;19;20014;-79
2022/06/02 06:49:40;;;;;;;7.45;5.43;;;;;;;14.20;68.89;100211.09;12173200;19;20013;-78
2022/06/02 06:53:59;;;;;;;10.95;5.50;;;;;;;14.33;67.92;100207.84;12187441;19;20013;-79
2022/06/02 06:58:23;;;;;;;8.70;6.05;;;;;;;14.55;67.47;100200.31;12173474;19;20962;-79
2022/06/02 07:02:44;;;;;;;9.68;4.53;;;;;;;14.77;66.63;100211.25;12211012;19;20085;-79
2022/06/02 07:07:23;;;;;;;7.50;5.15;;;;;;;15.07;65.95;100211.69;12188850;19;20007;-79
2022/06/02 07:16:14;;;;;;;6.82;4.47;;;;;;;15.29;63.23;100209.59;12213322;19;20007;-79
2022/06/02 07:20:30;;;;;;;7.68;4.55;;;;;;;15.46;62.77;100206.59;12226785;19;20018;-79
2022/06/02 07:24:44;;;;;;;9.07;4.78;;;;;;;15.74;61.97;100216.44;12250658;19;20025;-79
2022/06/02 07:29:24;;;;;;;8.00;4.93;;;;;;;15.79;61.04;100216.41;12209823;19;20014;-79
2022/06/02 07:33:34;;;;;;;7.28;4.38;;;;;;;16.16;60.30;100221.78;12239164;19;20032;-80
2022/06/02 07:38:06;;;;;;;8.23;4.38;;;;;;;16.40;58.47;100213.72;12214166;19;20348;-78
2022/06/02 07:42:25;;;;;;;7.05;4.63;;;;;;;16.41;56.27;100222.88;12217472;19;20007;-79
2022/06/02 07:47:00;;;;;;;6.88;3.78;;;;;;;16.60;54.45;100209.25;12200048;19;20489;-79
2022/06/02 07:51:23;;;;;;;5.68;3.95;;;;;;;16.78;53.76;100210.66;12205236;19;20006;-80
2022/06/02 07:55:31;;;;;;;7.00;4.03;;;;;;;16.96;53.03;100209.22;12178187;19;20858;-79
2022/06/02 07:59:57;;;;;;;6.28;3.97;;;;;;;17.14;52.17;100203.03;12196834;19;20465;-80
2022/06/02 08:04:36;;;;;;;6.50;3.78;;;;;;;17.31;52.57;100189.59;12198357;19;20379;-79
2022/06/02 08:08:38;;;;;;;8.05;3.65;;;;;;;17.45;52.06;100202.88;12221652;19;20025;-79
2022/06/02 08:13:08;;;;;;;7.22;3.88;;;;;;;17.62;51.32;100200.56;12187862;19;20066;-79
2022/06/02 08:17:23;;;;;;;4.63;3.33;;;;;;;17.97;51.17;100196.75;12216698;19;20472;-79
2022/06/02 08:21:31;;;;;;;7.40;3.95;;;;;;;18.21;50.62;100194.06;12217519;19;20017;-79
2022/06/02 08:25:55;;;;;;;6.25;3.53;;;;;;;18.41;49.20;100190.28;12202587;19;20011;-79
2022/06/02 08:29:56;;;;;;;6.55;3.28;;;;;;;18.50;48.49;100204.44;12220811;19;20010;-79
2022/06/02 08:34:13;;;;;;;4.75;3.33;;;;;;;18.75;48.62;100213.72;12195498;19;20480;-80
2022/06/02 08:38:40;;;;;;;6.05;3.30;;;;;;;18.86;47.81;100215.28;12210014;19;20007;-80
2022/06/02 08:43:38;;;;;;;8.30;3.20;;;;;;;18.82;48.13;100216.97;12192406;19;20010;-80
2022/06/02 08:47:49;;;;;;;5.20;3.33;;;;;;;18.97;48.53;100214.03;12205431;19;20037;-80
2022/06/02 08:52:25;;;;;;;5.90;3.72;;;;;;;19.25;47.41;100217.06;12187272;19;21074;-80
2022/06/02 08:57:04;;;;;;;4.80;2.70;;;;;;;19.39;47.24;100211.56;12217428;19;20086;-80
2022/06/02 09:01:21;;;;;;;3.53;2.63;;;;;;;19.28;46.77;100224.84;12182691;19;20020;-78
2022/06/02 09:05:51;;;;;;;6.03;3.33;;;;;;;19.30;45.78;100208.59;12216469;19;20034;-82
2022/06/02 09:10:01;;;;;;;6.65;3.33;;;;;;;19.29;45.70;100221.75;12187091;19;20465;-79
2022/06/02 09:14:03;;;;;;;4.38;3.10;;;;;;;19.66;44.45;100211.81;12210378;19;20010;-80
2022/06/02 09:18:24;;;;;;;4.03;3.00;;;;;;;19.74;44.29;100215.91;12206572;19;20010;-80
2022/06/02 09:22:48;;;;;;;4.13;2.80;;;;;;;20.06;43.52;100217.94;12194266;19;20026;-79
2022/06/02 09:27:28;;;;;;;5.18;2.60;;;;;;;20.52;42.37;100227.56;12220884;19;20014;-79
2022/06/02 09:32:02;;;;;;;5.70;2.60;;;;;;;20.53;41.73;100220.88;12188829;19;20018;-79
2022/06/02 09:36:34;;;;;;;4.47;2.15;;;;;;;20.79;41.91;100216.47;12202020;19;20043;-79
2022/06/02 09:40:48;;;;;;;3.72;2.33;;;;;;;20.59;40.56;100216.84;12184112;19;20431;-80
2022/06/02 09:45:28;;;;;;;5.00;2.28;;;;;;;20.59;41.05;100222.44;12206211;19;20074;-79
2022/06/02 09:50:14;;;;;;;4.03;2.50;;;;;;;20.96;40.50;100220.63;12190690;19;20011;-79
2022/06/02 09:54:44;;;;;;;2.63;2.40;;;;;;;21.08;39.45;100213.38;12204468;19;20030;-78
2022/06/02 09:59:17;;;;;;;4.65;2.10;;;;;;;21.25;39.66;100203.53;12192799;19;20459;-79
2022/06/02 10:03:30;;;;;;;2.53;1.77;;;;;;;21.73;38.99;100206.72;12209502;19;20022;-79
2022/06/02 10:07:51;;;;;;;3.40;1.75;;;;;;;21.71;37.81;100206.19;12182033;19;20011;-78
2022/06/02 10:16:37;;;;;;;3.47;1.90;;;;;;;21.16;38.06;100200.63;12191554;19;20022;-78
2022/06/02 10:21:23;;;;;;;5.00;2.10;;;;;;;21.36;38.67;100196.63;12202339;19;20022;-79
2022/06/02 10:26:20;;;;;;;3.83;1.77;;;;;;;21.86;37.83;100205.00;12183922;19;20010;-78
2022/06/02 10:30:32;;;;;;;4.15;2.30;;;;;;;22.22;37.26;100196.63;12244004;19;20028;-80
2022/06/02 10:35:18;;;;;;;5.15;2.10;;;;;;;22.45;36.59;100189.00;12186050;19;20093;-79
2022/06/02 10:39:53;;;;;;;5.30;2.80;;;;;;;22.43;36.26;100191.34;12208338;19;20019;-79
2022/06/02 10:44:13;;;;;;;4.70;2.78;;;;;;;22.59;36.74;100191.75;12181424;19;20422;-79
2022/06/02 10:48:37;;;;;;;3.35;2.75;;;;;;;22.89;35.67;100189.28;12202659;19;20010;-80
2022/06/02 10:53:12;;;;;;;5.10;2.00;;;;;;;22.58;35.49;100201.34;12165325;19;20093;-79
2022/06/02 10:57:59;;;;;;;6.05;3.22;;;;;;;22.58;35.69;100186.47;12203668;19;20010;-79
2022/06/02 11:02:33;;;;;;;3.83;1.95;;;;;;;22.68;36.80;100187.00;12179230;19;20767;-80
2022/06/02 11:07:00;;;;;;;4.55;2.33;;;;;;;22.80;35.78;100186.41;12191864;19;20015;-79
2022/06/02 11:11:20;;;;;;;3.45;2.10;;;;;;;22.88;35.19;100190.44;12176922;19;20129;-79
2022/06/02 11:15:31;;;;;;;6.85;2.40;;;;;;;22.79;35.58;100181.13;12194285;19;20027;-79
2022/06/02 11:19:55;;;;;;;3.95;2.42;;;;;;;22.60;35.17;100167.31;12184333;19;20017;-79
2022/06/02 11:24:41;;;;;;;9.35;1.65;;;;;;;22.98;35.21;100162.88;12206891;19;20382;-80
2022/06/02 11:28:58;;;;;;;2.58;1.67;;;;;;;23.06;34.43;100175.34;12178258;19;20010;-80
2022/06/02 11:33:14;;;;;;;3.08;2.10;;;;;;;23.62;34.46;100176.47;12207597;19;20007;-79
2022/06/02 11:37:31;;;;;;;2.63;1.95;;;;;;;23.91;33.44;100174.22;12187594;19;20010;-79
2022/06/02 11:42:14;;;;;;;3.63;2.05;;;;;;;23.88;33.16;100168.09;12212406;19;20079;-79
2022/06/02 11:46:32;;;;;;;5.77;2.23;;;;;;;23.90;33.06;100158.50;12198197;19;20026;-79
2022/06/02 11:51:08;;;;;;;3.35;2.25;;;;;;;23.47;33.75;100154.47;12204510;19;20031;-79
2022/06/02 11:56:00;;;;;;;4.70;1.90;;;;;;;23.55;33.85;100156.44;12193548;19;20003;-79
2022/06/02 12:00:41;;;;;;;4.57;2.67;;;;;;;24.10;32.93;100152.19;12215457;19;20090;-79
2022/06/02 12:05:05;;;;;;;3.30;2.20;;;;;;;24.59;32.74;100154.78;12181461;19;20094;-80
2022/06/02 12:09:32;;;;;;;2.67;1.60;;;;;;;25.06;32.53;100149.97;12215879;19;20105;-79
2022/06/02 12:13:36;;;;;;;3.38;1.98;;;;;;;25.52;31.68;100141.75;12186985;19;20081;-80
2022/06/02 12:18:03;;;;;;;3.13;1.83;;;;;;;26.06;30.44;100141.88;12217809;19;20003;-80
2022/06/02 12:22:37;;;;;;;4.18;2.20;;;;;;;26.58;29.02;100128.06;12193290;19;20413;-81
2022/06/02 12:27:12;;;;;;;3.70;2.50;;;;;;;27.46;27.74;100134.28;12203689;19;20090;-81
2022/06/02 12:31:36;;;;;;;2.95;1.75;;;;;;;28.40;27.45;100120.88;12198227;19;20019;-81
2022/06/02 12:35:53;;;;;;;3.95;2.25;;;;;;;29.17;26.06;100116.84;12209520;19;20011;-80
2022/06/02 12:40:13;;;;;;;2.90;1.75;;;;;;;29.62;25.27;100102.09;12193308;19;20019;-81
2022/06/02 12:44:57;;;;;;;3.35;1.98;;;;;;;29.96;23.76;100114.63;12209645;19;20090;-80
2022/06/02 12:49:17;;;;;;;2.47;1.95;;;;;;;30.68;23.37;100118.88;12181141;19;20031;-82
2022/06/02 12:53:26;;;;;;;;;;;;;;;30.83;22.77;100109.44;12207004;19;20014;-81
2022/06/02 12:57:50;;;;;;;4.05;2.20;;;;;;;30.03;21.74;100113.13;12217799;19;19966;-82
2022/06/02 13:02:17;;;;;;;2.40;1.42;;;;;;;30.86;21.78;100105.00;12186207;19;20019;-81
2022/06/02 13:06:53;;;;;;;2.00;1.55;;;;;;;30.72;21.61;100088.47;12195010;19;20014;-82
2022/06/02 13:11:25;;;;;;;1.65;1.45;;;;;;;31.28;20.44;100093.47;12190628;19;20010;-81
2022/06/02 13:15:55;;;;;;;2.47;1.77;;;;;;;31.55;20.58;100076.41;12207027;19;20002;-81
2022/06/02 13:20:34;;;;;;;5.13;1.48;;;;;;;32.21;20.12;100085.41;12187553;19;20003;-81
2022/06/02 13:24:58;;;;;;;2.03;1.48;;;;;;;32.81;19.92;100076.69;12215696;19;20099;-82
2022/06/02 13:29:09;;;;;;;3.08;2.13;;;;;;;32.25;19.80;100074.88;12209581;19;20006;-82
2022/06/02 13:33:38;;;;;;;2.10;1.60;;;;;;;32.99;20.04;100070.28;12216262;19;20633;-81
2022/06/02 13:38:18;;;;;;;2.75;1.70;;;;;;;34.07;17.84;100068.94;12196528;19;20030;-81
2022/06/02 13:42:58;;;;;;;1.90;1.70;;;;;;;34.77;17.76;100063.75;12217331;19;20003;-82
2022/06/02 13:47:28;;;;;;;4.45;1.30;;;;;;;34.67;16.96;100059.66;12192246;19;20487;-81
2022/06/02 13:51:40;;;;;;;3.42;1.65;;;;;;;35.24;16.99;100067.41;12205127;19;20028;-82
2022/06/02 14:00:51;;;;;;;3.33;1.70;;;;;;;36.28;16.19;100051.50;12238910;19;20010;-83
2022/06/02 14:05:09;;;;;;;1.65;1.33;;;;;;;36.41;16.24;100048.13;12185051;19;20035;-83
2022/06/02 14:09:31;;;;;;;1.33;1.23;;;;;;;37.24;15.69;100046.22;12209544;19;20025;-82
2022/06/02 14:13:45;;;;;;;3.42;1.58;;;;;;;37.79;15.15;100035.78;12191552;19;20007;-82
2022/06/02 14:17:59;;;;;;;4.13;1.42;;;;;;;37.77;14.95;100036.19;12205310;19;20003;-82
2022/06/02 14:22:22;;;;;;;1.58;1.20;;;;;;;38.10;15.33;100032.91;12180261;19;20027;-82
2022/06/02 14:26:33;;;;;;;3.58;1.20;;;;;;;37.74;14.99;100036.25;12204671;19;20014;-83
2022/06/02 14:30:59;;;;;;;4.13;1.30;;;;;;;38.13;13.92;100041.47;12208995;19;20031;-81
2022/06/02 14:35:27;;;;;;;4.03;1.40;;;;;;;38.17;14.01;100035.69;12195809;19;20096;-82
2022/06/02 14:39:55;;;;;;;2.65;1.23;;;;;;;39.02;14.09;100029.81;12207039;19;20018;-82
2022/06/02 14:44:31;;;;;;;1.10;1.00;;;;;;;38.47;14.00;100026.22;12178125;19;20007;-82
2022/06/02 14:48:51;;;;;;;1.17;1.10;;;;;;;36.13;14.91;100029.06;12207444;19;20010;-81
2022/06/02 14:53:16;;;;;;;3.90;1.37;;;;;;;35.54;15.83;100018.22;12172323;19;20023;-82
2022/06/02 14:57:39;;;;;;;2.65;1.27;;;;;;;35.41;15.95;100017.88;12218266;19;20445;-82
2022/06/02 15:01:56;;;;;;;1.45;1.30;;;;;;;34.36;17.08;100013.44;12186799;19;20034;-81
2022/06/02 15:06:00;;;;;;;1.75;1.30;;;;;;;33.48;17.17;100011.88;12211274;19;20094;-81
2022/06/02 15:10:29;;;;;;;1.95;1.20;;;;;;;34.89;16.56;100006.91;12181896;19;20019;-81
2022/06/02 15:14:55;;;;;;;2.05;1.65;;;;;;;36.32;15.29;100004.75;12204865;19;20015;-81
2022/06/02 15:19:26;;;;;;;1.77;1.33;;;;;;;36.80;15.10;100003.97;12184462;19;20015;-82
2022/06/02 15:24:25;;;;;;;2.17;1.40;;;;;;;34.60;16.23;99994.66;12205803;19;20034;-81
2022/06/02 15:29:02;;;;;;;3.13;1.60;;;;;;;32.10;18.44;99991.22;12181257;19;20869;-82
2022/06/02 15:33:13;;;;;;;2.53;1.50;;;;;;;29.83;20.19;99990.16;12213536;19;20011;-80
2022/06/02 15:37:30;;;;;;;1.30;1.20;;;;;;;28.59;21.56;99984.13;12184725;19;20015;-80
2022/06/02 15:41:53;;;;;;;2.80;1.23;;;;;;;27.10;22.79;99970.19;12211831;19;20117;-80
2022/06/02 15:46:13;;;;;;;3.38;2.05;;;;;;;26.34;23.89;99964.94;12180624;19;20021;-82
2022/06/02 15:50:24;;;;;;;3.38;1.33;;;;;;;25.87;23.88;99961.69;12209319;19;20471;-82
2022/06/02 15:55:05;;;;;;;1.93;1.60;;;;;;;25.22;24.60;99961.28;12210096;19;20049;-82
2022/06/02 15:59:45;;;;;;;3.33;1.30;;;;;;;24.59;25.34;99960.41;12130489;19;2004629;-82
2022/06/02 16:03:53;;;;;;;3.00;1.50;;;;;;;24.18;26.01;99956.25;12221740;19;20225;-81
2022/06/02 16:08:19;;;;;;;2.00;1.63;;;;;;;23.97;26.71;99944.91;12236969;19;20006;-81
2022/06/02 16:12:39;;;;;;;3.30;1.45;;;;;;;24.37;26.29;99953.84;12211288;19;20070;-82
2022/06/02 16:17:03;;;;;;;1.88;1.23;;;;;;;24.02;26.54;99954.00;12179442;19;20083;-82
2022/06/02 16:21:39;;;;;;;1.60;1.23;;;;;;;23.83;26.96;99947.94;12201888;19;20006;-82
2022/06/02 16:25:58;;;;;;;1.67;1.40;;;;;;;23.74;26.32;99941.53;12193840;19;20027;-82
2022/06/02 16:30:20;;;;;;;2.05;1.27;;;;;;;23.53;26.88;99941.34;12211389;19;20508;-82
2022/06/02 16:34:24;;;;;;;;;;;;;;;23.25;27.15;99950.16;12180032;19;20010;-82
2022/06/02 16:38:44;;;;;;;3.22;1.30;;;;;;;22.89;27.77;99944.81;12209511;19;19915;-81
2022/06/02 16:42:48;;;;;;;1.85;1.42;;;;;;;22.82;27.75;99945.31;12187451;19;20018;-82
2022/06/02 16:47:22;;;;;;;2.85;1.30;;;;;;;22.80;28.08;99944.81;12205182;19;20010;-82
2022/06/02 16:51:42;;;;;;;2.05;1.38;;;;;;;22.75;27.67;99936.53;12202466;19;20334;-82
2022/06/02 16:55:52;;;;;;;4.57;1.40;;;;;;;22.67;28.29;99946.63;12185180;19;20010;-81
2022/06/02 17:00:12;;;;;;;3.28;1.45;;;;;;;22.52;29.21;99944.28;12207982;19;20845;-82
2022/06/02 17:04:26;;;;;;;1.70;1.15;;;;;;;22.58;28.71;99939.34;12189936;19;20009;-82
2022/06/02 17:08:43;;;;;;;1.98;1.30;;;;;;;22.50;28.79;99944.59;12194975;19;20467;-81
2022/06/02 17:12:55;;;;;;;1.98;1.33;;;;;;;22.48;29.00;99943.25;12181982;19;20031;-82
2022/06/02 17:17:21;;;;;;;2.85;1.20;;;;;;;22.40;28.76;99941.25;12199945;19;20007;-82
2022/06/02 17:21:48;;;;;;;2.42;1.48;;;;;;;22.34;28.73;99942.53;12205595;19;20015;-82
2022/06/02 17:26:15;;;;;;;2.35;1.20;;;;;;;22.33;28.87;99938.91;12214406;19;20054;-81
2022/06/02 17:30:43;;;;;;;1.50;1.30;;;;;;;22.35;28.65;99950.66;12236952;19;20010;-82
2022/06/02 17:35:03;;;;;;;2.78;1.10;;;;;;;22.30;28.84;99943.19;12186704;19;20104;-81
2022/06/02 17:39:26;;;;;;;1.80;1.17;;;;;;;22.25;29.07;99950.97;12220276;19;20096;-82
2022/06/02 17:43:35;;;;;;;3.33;1.42;;;;;;;22.19;29.19;99947.47;12198485;19;20010;-81
2022/06/02 17:48:17;;;;;;;1.58;1.00;;;;;;;22.12;29.58;99949.88;12211982;19;20007;-79
2022/06/02 17:52:47;;;;;;;1.20;1.05;;;;;;;22.02;29.26;99939.78;12187052;19;20753;-80
2022/06/02 17:57:32;;;;;;;1.52;1.30;;;;;;;21.95;29.34;99946.97;12203040;19;20010;-80
2022/06/02 18:01:54;;;;;;;1.88;1.20;;;;;;;21.82;29.25;99941.16;12181777;19;20006;-79
2022/06/02 18:06:34;;;;;;;2.93;1.10;;;;;;;21.74;29.86;99938.28;12201216;19;20488;-81
2022/06/02 18:11:00;;;;;;;3.28;1.33;;;;;;;21.63;30.24;99943.34;12176562;19;20243;-81
2022/06/02 18:15:27;;;;;;;1.77;0.95;;;;;;;21.56;30.75;99942.97;12200386;19;20006;-79
2022/06/02 18:19:53;;;;;;;2.28;1.38;;;;;;;21.53;30.82;99938.00;12187476;19;20029;-81
2022/06/02 18:24:15;;;;;;;2.03;1.13;;;;;;;21.48;30.01;99935.34;12206270;19;20487;-81
2022/06/02 18:28:42;;;;;;;4.40;1.40;;;;;;;21.32;31.00;99930.06;12189845;19;20718;-80
2022/06/02 18:33:13;;;;;;;;;;;;;;;21.10;31.07;99930.09;12211183;19;20006;-81
2022/06/02 18:37:33;;;;;;;1.00;0.80;;;;;;;20.87;31.96;99927.25;12180696;19;19915;-82
2022/06/02 18:42:06;;;;;;;3.17;1.10;;;;;;;20.64;32.94;99928.34;12227246;19;20014;-80
2022/06/02 18:56:11;;;;;;;1.90;0.93;;;;;;;19.75;35.28;99926.75;12200310;19;20055;-82
2022/06/02 19:00:37;;;;;;;2.10;1.27;;;;;;;19.52;35.39;99914.59;12210975;19;20015;-81
2022/06/02 19:04:54;;;;;;;2.03;1.17;;;;;;;19.31;36.36;99928.09;12184642;19;20092;-82
2022/06/02 19:14:05;;;;;;;5.68;1.27;;;;;;;18.82;37.35;99929.41;12177359;19;20010;-82
2022/06/02 19:18:33;;;;;;;2.05;1.27;;;;;;;18.60;38.63;99939.19;12202463;19;20017;-81
2022/06/02 19:23:03;;;;;;;2.63;1.27;;;;;;;18.39;39.65;99937.81;12183244;19;20074;-81
2022/06/02 19:27:04;;;;;;;2.65;1.95;;;;;;;18.22;39.54;99947.47;12201609;19;20027;-81
2022/06/02 19:31:27;;;;;;;1.77;1.23;;;;;;;18.06;40.33;99942.41;12181233;19;20069;-81
2022/06/02 19:35:43;;;;;;;2.38;1.30;;;;;;;17.91;41.13;99944.22;12207095;19;20010;-81
2022/06/02 19:39:57;;;;;;;3.03;1.50;;;;;;;17.78;41.03;99950.47;12173220;19;20011;-81
2022/06/02 19:44:11;;;;;;;2.30;1.30;;;;;;;17.69;41.84;99958.63;12201502;19;20074;-81
2022/06/02 19:48:39;;;;;;;1.73;1.30;;;;;;;17.62;42.26;99958.13;12205033;19;20341;-81
2022/06/02 19:52:54;;;;;;;2.95;1.80;;;;;;;17.50;42.76;99960.47;12180708;19;20015;-81
2022/06/02 19:57:04;;;;;;;4.25;1.52;;;;;;;17.44;43.42;99958.88;12202791;19;20104;-81
2022/06/02 20:01:15;;;;;;;2.58;1.45;;;;;;;17.36;43.22;99960.31;12186814;19;20002;-81
2022/06/02 20:05:24;;;;;;;2.42;1.60;;;;;;;17.33;43.36;99965.63;12220564;19;20034;-80
2022/06/02 20:09:47;;;;;;;3.83;1.30;;;;;;;17.30;43.66;99969.84;12219263;19;20544;-81
2022/06/02 20:34:18;;;;;;;2.08;1.25;;;;;;;17.11;44.31;99971.66;12221923;19;20030;-80
2022/06/02 20:39:00;;;;;;;1.85;1.30;;;;;;;17.06;45.05;99972.53;12121327;19;2004378;-80
2022/06/02 20:43:37;;;;;;;1.70;1.20;;;;;;;16.99;45.42;99981.19;12194984;19;20034;-81
2022/06/02 20:47:53;;;;;;;1.95;1.10;;;;;;;16.89;45.32;99972.06;12217680;19;20021;-80
2022/06/02 20:52:05;;;;;;;2.38;1.25;;;;;;;16.85;45.90;99966.25;12192880;19;20007;-78
2022/06/02 20:56:39;;;;;;;5.20;2.30;;;;;;;16.80;46.12;99957.94;12244952;19;20010;-81
2022/06/02 21:00:51;;;;;;;3.15;1.40;;;;;;;16.70;47.05;99958.78;12208557;19;20027;-82
2022/06/02 21:05:07;;;;;;;1.40;1.15;;;;;;;16.70;47.00;99958.78;12219523;19;20032;-78
2022/06/02 21:09:44;;;;;;;3.58;1.50;;;;;;;16.69;47.28;99950.75;12201342;19;20015;-81
2022/06/02 21:14:01;;;;;;;1.35;1.00;;;;;;;16.64;47.52;99954.38;12183755;19;20142;-80
2022/06/02 21:18:24;;;;;;;3.15;1.30;;;;;;;16.62;47.82;99964.97;12217406;19;20010;-81
2022/06/02 21:22:49;;;;;;;1.20;0.90;;;;;;;16.59;48.20;99957.19;12196863;19;20007;-81